sensor_id;sensor_type;location;lat;lon;timestamp;temperature;humidity
83770;DHT22;73763;48.936;9.300;2024-02-26T00:02:13;7.50;90.40
83770;DHT22;73763;48.936;9.300;2024-02-26T00:04:41;7.40;90.40
83770;DHT22;73763;48.936;9.300;2024-02-26T00:07:12;7.40;90.50
83770;DHT22;73763;48.936;9.300;2024-02-26T00:09:41;7.30;91.00
83770;DHT22;73763;48.936;9.300;2024-02-26T00:12:12;7.30;90.20
83770;DHT22;73763;48.936;9.300;2024-02-26T00:14:38;7.40;90.00
83770;DHT22;73763;48.936;9.300;2024-02-26T00:17:10;7.40;89.60
83770;DHT22;73763;48.936;9.300;2024-02-26T00:19:44;7.50;88.80
83770;DHT22;73763;48.936;9.300;2024-02-26T00:22:12;7.60;87.70
83770;DHT22;73763;48.936;9.300;2024-02-26T00:24:40;7.60;88.50
83770;DHT22;73763;48.936;9.300;2024-02-26T00:27:11;7.60;88.70
83770;DHT22;73763;48.936;9.300;2024-02-26T00:29:36;7.50;89.00
83770;DHT22;73763;48.936;9.300;2024-02-26T00:32:20;7.50;88.70
83770;DHT22;73763;48.936;9.300;2024-02-26T00:35:01;7.30;89.20
83770;DHT22;73763;48.936;9.300;2024-02-26T00:37:32;7.50;88.80
83770;DHT22;73763;48.936;9.300;2024-02-26T00:40:11;7.50;88.00
83770;DHT22;73763;48.936;9.300;2024-02-26T00:42:39;7.50;89.20
83770;DHT22;73763;48.936;9.300;2024-02-26T00:45:12;7.40;89.30
83770;DHT22;73763;48.936;9.300;2024-02-26T00:47:39;7.40;89.40
83770;DHT22;73763;48.936;9.300;2024-02-26T00:50:10;7.40;89.70
83770;DHT22;73763;48.936;9.300;2024-02-26T00:52:43;7.30;90.10
83770;DHT22;73763;48.936;9.300;2024-02-26T00:55:14;7.30;89.70
83770;DHT22;73763;48.936;9.300;2024-02-26T00:57:49;7.30;89.30
83770;DHT22;73763;48.936;9.300;2024-02-26T01:00:27;7.40;88.80
83770;DHT22;73763;48.936;9.300;2024-02-26T01:03:07;7.30;88.70
83770;DHT22;73763;48.936;9.300;2024-02-26T01:05:40;7.30;88.70
83770;DHT22;73763;48.936;9.300;2024-02-26T01:08:13;7.20;89.20
83770;DHT22;73763;48.936;9.300;2024-02-26T01:10:42;7.30;89.00
83770;DHT22;73763;48.936;9.300;2024-02-26T01:13:21;7.30;88.70
83770;DHT22;73763;48.936;9.300;2024-02-26T01:15:49;7.30;87.70
83770;DHT22;73763;48.936;9.300;2024-02-26T01:18:18;7.40;87.20
83770;DHT22;73763;48.936;9.300;2024-02-26T01:20:49;7.40;87.00
83770;DHT22;73763;48.936;9.300;2024-02-26T01:23:15;7.40;86.90
83770;DHT22;73763;48.936;9.300;2024-02-26T01:25:48;7.50;86.30
83770;DHT22;73763;48.936;9.300;2024-02-26T01:28:18;7.50;86.80
83770;DHT22;73763;48.936;9.300;2024-02-26T01:30:54;7.50;86.80
83770;DHT22;73763;48.936;9.300;2024-02-26T01:33:24;7.40;87.10
83770;DHT22;73763;48.936;9.300;2024-02-26T01:35:52;7.50;87.70
83770;DHT22;73763;48.936;9.300;2024-02-26T01:38:23;7.30;88.00
83770;DHT22;73763;48.936;9.300;2024-02-26T01:40:50;7.30;88.50
83770;DHT22;73763;48.936;9.300;2024-02-26T01:43:16;7.30;89.00
83770;DHT22;73763;48.936;9.300;2024-02-26T01:45:44;7.10;89.50
83770;DHT22;73763;48.936;9.300;2024-02-26T01:48:13;7.20;90.40
83770;DHT22;73763;48.936;9.300;2024-02-26T01:50:41;7.10;91.10
83770;DHT22;73763;48.936;9.300;2024-02-26T01:53:10;6.90;91.50
83770;DHT22;73763;48.936;9.300;2024-02-26T01:55:39;6.90;91.70
83770;DHT22;73763;48.936;9.300;2024-02-26T01:58:10;6.90;91.90
83770;DHT22;73763;48.936;9.300;2024-02-26T02:00:36;6.80;91.90
83770;DHT22;73763;48.936;9.300;2024-02-26T02:03:07;6.80;91.70
83770;DHT22;73763;48.936;9.300;2024-02-26T02:05:37;6.90;91.70
83770;DHT22;73763;48.936;9.300;2024-02-26T02:08:06;6.80;92.00
83770;DHT22;73763;48.936;9.300;2024-02-26T02:10:32;6.70;92.30
83770;DHT22;73763;48.936;9.300;2024-02-26T02:13:00;6.70;92.70
83770;DHT22;73763;48.936;9.300;2024-02-26T02:15:29;6.60;92.70
83770;DHT22;73763;48.936;9.300;2024-02-26T02:17:54;6.60;93.80
83770;DHT22;73763;48.936;9.300;2024-02-26T02:20:39;6.50;93.80
83770;DHT22;73763;48.936;9.300;2024-02-26T02:23:07;6.40;93.00
83770;DHT22;73763;48.936;9.300;2024-02-26T02:25:38;6.50;91.50
83770;DHT22;73763;48.936;9.300;2024-02-26T02:28:07;6.60;91.20
83770;DHT22;73763;48.936;9.300;2024-02-26T02:30:40;6.70;90.60
83770;DHT22;73763;48.936;9.300;2024-02-26T02:33:06;6.80;90.90
83770;DHT22;73763;48.936;9.300;2024-02-26T02:35:38;6.80;90.80
83770;DHT22;73763;48.936;9.300;2024-02-26T02:38:10;6.80;90.40
83770;DHT22;73763;48.936;9.300;2024-02-26T02:40:36;6.90;90.60
83770;DHT22;73763;48.936;9.300;2024-02-26T02:43:11;6.90;90.80
83770;DHT22;73763;48.936;9.300;2024-02-26T02:45:49;6.80;90.80
83770;DHT22;73763;48.936;9.300;2024-02-26T02:48:18;6.80;91.00
83770;DHT22;73763;48.936;9.300;2024-02-26T02:50:45;6.80;90.30
83770;DHT22;73763;48.936;9.300;2024-02-26T02:53:15;6.80;90.90
83770;DHT22;73763;48.936;9.300;2024-02-26T02:55:49;6.80;91.30
83770;DHT22;73763;48.936;9.300;2024-02-26T02:58:17;6.90;91.10
83770;DHT22;73763;48.936;9.300;2024-02-26T03:00:53;6.90;90.40
83770;DHT22;73763;48.936;9.300;2024-02-26T03:03:27;6.90;90.90
83770;DHT22;73763;48.936;9.300;2024-02-26T03:05:55;6.80;90.80
83770;DHT22;73763;48.936;9.300;2024-02-26T03:08:29;6.80;91.10
83770;DHT22;73763;48.936;9.300;2024-02-26T03:10:55;6.80;90.90
83770;DHT22;73763;48.936;9.300;2024-02-26T03:13:32;6.90;91.10
83770;DHT22;73763;48.936;9.300;2024-02-26T03:16:04;6.80;91.30
83770;DHT22;73763;48.936;9.300;2024-02-26T03:18:30;6.80;91.40
83770;DHT22;73763;48.936;9.300;2024-02-26T03:21:01;6.80;90.80
83770;DHT22;73763;48.936;9.300;2024-02-26T03:23:30;6.90;91.20
83770;DHT22;73763;48.936;9.300;2024-02-26T03:26:04;6.90;91.40
83770;DHT22;73763;48.936;9.300;2024-02-26T03:28:35;6.90;92.20
83770;DHT22;73763;48.936;9.300;2024-02-26T03:31:22;6.80;91.90
83770;DHT22;73763;48.936;9.300;2024-02-26T03:33:49;6.80;92.50
83770;DHT22;73763;48.936;9.300;2024-02-26T03:36:17;6.70;92.70
83770;DHT22;73763;48.936;9.300;2024-02-26T03:38:48;6.70;93.60
83770;DHT22;73763;48.936;9.300;2024-02-26T03:41:22;6.60;93.20
83770;DHT22;73763;48.936;9.300;2024-02-26T03:43:53;6.60;93.40
83770;DHT22;73763;48.936;9.300;2024-02-26T03:46:21;6.60;92.20
83770;DHT22;73763;48.936;9.300;2024-02-26T03:49:00;6.80;92.10
83770;DHT22;73763;48.936;9.300;2024-02-26T03:51:28;6.80;92.10
83770;DHT22;73763;48.936;9.300;2024-02-26T03:53:59;6.80;93.20
83770;DHT22;73763;48.936;9.300;2024-02-26T03:56:33;6.70;93.50
83770;DHT22;73763;48.936;9.300;2024-02-26T03:59:09;6.60;93.70
83770;DHT22;73763;48.936;9.300;2024-02-26T04:01:53;6.50;94.00
83770;DHT22;73763;48.936;9.300;2024-02-26T04:04:26;6.40;94.60
83770;DHT22;73763;48.936;9.300;2024-02-26T04:06:56;6.40;94.70
83770;DHT22;73763;48.936;9.300;2024-02-26T04:09:51;6.20;94.90
83770;DHT22;73763;48.936;9.300;2024-02-26T04:12:20;6.20;95.00
83770;DHT22;73763;48.936;9.300;2024-02-26T04:14:46;6.20;95.30
83770;DHT22;73763;48.936;9.300;2024-02-26T04:17:17;6.20;95.20
83770;DHT22;73763;48.936;9.300;2024-02-26T04:19:48;6.20;95.20
83770;DHT22;73763;48.936;9.300;2024-02-26T04:22:17;6.30;94.80
83770;DHT22;73763;48.936;9.300;2024-02-26T04:24:45;6.20;95.10
83770;DHT22;73763;48.936;9.300;2024-02-26T04:27:16;6.10;95.70
83770;DHT22;73763;48.936;9.300;2024-02-26T04:29:42;6.10;96.40
83770;DHT22;73763;48.936;9.300;2024-02-26T04:32:07;6.10;96.20
83770;DHT22;73763;48.936;9.300;2024-02-26T04:34:33;6.10;96.40
83770;DHT22;73763;48.936;9.300;2024-02-26T04:36:59;6.00;95.70
83770;DHT22;73763;48.936;9.300;2024-02-26T04:39:24;6.00;96.10
83770;DHT22;73763;48.936;9.300;2024-02-26T04:41:50;6.00;96.10
83770;DHT22;73763;48.936;9.300;2024-02-26T04:44:16;6.00;96.20
83770;DHT22;73763;48.936;9.300;2024-02-26T04:46:41;5.90;96.40
83770;DHT22;73763;48.936;9.300;2024-02-26T04:49:09;5.90;96.40
83770;DHT22;73763;48.936;9.300;2024-02-26T04:51:34;5.90;96.80
83770;DHT22;73763;48.936;9.300;2024-02-26T04:54:00;6.00;96.40
83770;DHT22;73763;48.936;9.300;2024-02-26T04:56:26;6.00;96.50
83770;DHT22;73763;48.936;9.300;2024-02-26T04:58:51;6.00;96.10
83770;DHT22;73763;48.936;9.300;2024-02-26T05:01:17;6.10;96.10
83770;DHT22;73763;48.936;9.300;2024-02-26T05:03:46;6.10;96.20
83770;DHT22;73763;48.936;9.300;2024-02-26T05:06:19;6.10;96.00
83770;DHT22;73763;48.936;9.300;2024-02-26T05:08:45;6.20;96.00
83770;DHT22;73763;48.936;9.300;2024-02-26T05:11:16;6.30;96.20
83770;DHT22;73763;48.936;9.300;2024-02-26T05:13:41;6.20;96.50
83770;DHT22;73763;48.936;9.300;2024-02-26T05:16:09;6.20;97.00
83770;DHT22;73763;48.936;9.300;2024-02-26T05:18:35;6.10;97.30
83770;DHT22;73763;48.936;9.300;2024-02-26T05:21:01;6.00;97.60
83770;DHT22;73763;48.936;9.300;2024-02-26T05:23:26;5.90;98.00
83770;DHT22;73763;48.936;9.300;2024-02-26T05:25:52;5.90;98.00
83770;DHT22;73763;48.936;9.300;2024-02-26T05:28:18;6.10;98.30
83770;DHT22;73763;48.936;9.300;2024-02-26T05:30:43;6.00;98.40
83770;DHT22;73763;48.936;9.300;2024-02-26T05:33:09;6.00;98.40
83770;DHT22;73763;48.936;9.300;2024-02-26T05:35:35;5.90;98.60
83770;DHT22;73763;48.936;9.300;2024-02-26T05:38:00;6.00;98.80
83770;DHT22;73763;48.936;9.300;2024-02-26T05:40:26;6.00;98.80
83770;DHT22;73763;48.936;9.300;2024-02-26T05:42:51;6.00;99.20
83770;DHT22;73763;48.936;9.300;2024-02-26T05:45:19;5.90;99.10
83770;DHT22;73763;48.936;9.300;2024-02-26T05:47:45;6.00;98.80
83770;DHT22;73763;48.936;9.300;2024-02-26T05:50:11;6.00;98.60
83770;DHT22;73763;48.936;9.300;2024-02-26T05:52:37;6.10;98.80
83770;DHT22;73763;48.936;9.300;2024-02-26T05:55:07;6.10;99.10
83770;DHT22;73763;48.936;9.300;2024-02-26T05:57:39;6.10;98.80
83770;DHT22;73763;48.936;9.300;2024-02-26T06:00:05;6.00;99.10
83770;DHT22;73763;48.936;9.300;2024-02-26T06:02:37;6.00;98.60
83770;DHT22;73763;48.936;9.300;2024-02-26T06:05:03;6.00;98.30
83770;DHT22;73763;48.936;9.300;2024-02-26T06:07:31;6.00;98.30
83770;DHT22;73763;48.936;9.300;2024-02-26T06:09:56;5.90;98.50
83770;DHT22;73763;48.936;9.300;2024-02-26T06:12:22;5.90;98.90
83770;DHT22;73763;48.936;9.300;2024-02-26T06:14:50;5.90;98.80
83770;DHT22;73763;48.936;9.300;2024-02-26T06:17:19;5.80;98.60
83770;DHT22;73763;48.936;9.300;2024-02-26T06:19:48;5.80;98.50
83770;DHT22;73763;48.936;9.300;2024-02-26T06:22:14;5.90;98.50
83770;DHT22;73763;48.936;9.300;2024-02-26T06:24:39;5.70;98.60
83770;DHT22;73763;48.936;9.300;2024-02-26T06:27:05;5.80;98.60
83770;DHT22;73763;48.936;9.300;2024-02-26T06:29:31;5.90;97.90
83770;DHT22;73763;48.936;9.300;2024-02-26T06:31:56;5.90;97.80
83770;DHT22;73763;48.936;9.300;2024-02-26T06:34:22;5.90;98.50
83770;DHT22;73763;48.936;9.300;2024-02-26T06:36:47;6.00;99.20
83770;DHT22;73763;48.936;9.300;2024-02-26T06:39:12;5.90;99.20
83770;DHT22;73763;48.936;9.300;2024-02-26T06:41:38;6.00;98.20
83770;DHT22;73763;48.936;9.300;2024-02-26T06:44:04;6.00;98.10
83770;DHT22;73763;48.936;9.300;2024-02-26T06:46:29;6.00;98.80
83770;DHT22;73763;48.936;9.300;2024-02-26T06:48:55;6.00;99.20
83770;DHT22;73763;48.936;9.300;2024-02-26T06:51:20;5.90;99.40
83770;DHT22;73763;48.936;9.300;2024-02-26T06:53:46;5.90;99.40
83770;DHT22;73763;48.936;9.300;2024-02-26T06:56:11;5.90;98.80
83770;DHT22;73763;48.936;9.300;2024-02-26T06:58:37;6.00;98.80
83770;DHT22;73763;48.936;9.300;2024-02-26T07:01:02;6.00;99.20
83770;DHT22;73763;48.936;9.300;2024-02-26T07:03:28;6.00;98.80
83770;DHT22;73763;48.936;9.300;2024-02-26T07:05:53;6.00;98.20
83770;DHT22;73763;48.936;9.300;2024-02-26T07:08:19;6.10;98.10
83770;DHT22;73763;48.936;9.300;2024-02-26T07:10:44;6.10;98.80
83770;DHT22;73763;48.936;9.300;2024-02-26T07:13:10;6.10;99.10
83770;DHT22;73763;48.936;9.300;2024-02-26T07:15:35;6.20;99.40
83770;DHT22;73763;48.936;9.300;2024-02-26T07:18:01;6.20;99.50
83770;DHT22;73763;48.936;9.300;2024-02-26T07:20:26;6.20;99.50
83770;DHT22;73763;48.936;9.300;2024-02-26T07:22:52;6.20;99.30
83770;DHT22;73763;48.936;9.300;2024-02-26T07:25:17;6.30;99.50
83770;DHT22;73763;48.936;9.300;2024-02-26T07:27:43;6.20;99.50
83770;DHT22;73763;48.936;9.300;2024-02-26T07:30:09;6.30;99.70
83770;DHT22;73763;48.936;9.300;2024-02-26T07:32:35;6.30;99.80
83770;DHT22;73763;48.936;9.300;2024-02-26T07:35:00;6.30;99.90
83770;DHT22;73763;48.936;9.300;2024-02-26T07:37:26;6.40;99.90
83770;DHT22;73763;48.936;9.300;2024-02-26T07:39:51;6.40;99.90
83770;DHT22;73763;48.936;9.300;2024-02-26T07:42:17;6.40;99.90
83770;DHT22;73763;48.936;9.300;2024-02-26T07:44:42;6.40;99.90
83770;DHT22;73763;48.936;9.300;2024-02-26T07:47:08;6.50;99.90
83770;DHT22;73763;48.936;9.300;2024-02-26T07:49:34;6.40;99.90
83770;DHT22;73763;48.936;9.300;2024-02-26T07:51:59;6.50;99.90
83770;DHT22;73763;48.936;9.300;2024-02-26T07:54:25;6.50;99.90
83770;DHT22;73763;48.936;9.300;2024-02-26T07:57:01;6.50;99.90
83770;DHT22;73763;48.936;9.300;2024-02-26T07:59:26;6.60;99.90
83770;DHT22;73763;48.936;9.300;2024-02-26T08:01:52;6.60;99.90
83770;DHT22;73763;48.936;9.300;2024-02-26T08:04:18;6.70;99.90
83770;DHT22;73763;48.936;9.300;2024-02-26T08:06:43;6.70;99.90
83770;DHT22;73763;48.936;9.300;2024-02-26T08:09:09;6.80;99.90
83770;DHT22;73763;48.936;9.300;2024-02-26T08:11:34;6.90;99.90
83770;DHT22;73763;48.936;9.300;2024-02-26T08:14:00;7.00;99.90
83770;DHT22;73763;48.936;9.300;2024-02-26T08:16:26;7.10;99.90
83770;DHT22;73763;48.936;9.300;2024-02-26T08:18:51;7.20;99.90
83770;DHT22;73763;48.936;9.300;2024-02-26T08:21:17;7.20;99.90
83770;DHT22;73763;48.936;9.300;2024-02-26T08:23:43;7.30;99.90
83770;DHT22;73763;48.936;9.300;2024-02-26T08:26:09;7.40;99.90
83770;DHT22;73763;48.936;9.300;2024-02-26T08:28:34;7.50;99.90
83770;DHT22;73763;48.936;9.300;2024-02-26T08:31:01;7.50;99.90
83770;DHT22;73763;48.936;9.300;2024-02-26T08:33:27;7.60;99.90
83770;DHT22;73763;48.936;9.300;2024-02-26T08:35:52;7.70;99.90
83770;DHT22;73763;48.936;9.300;2024-02-26T08:38:18;7.80;99.90
83770;DHT22;73763;48.936;9.300;2024-02-26T08:40:43;7.80;99.90
83770;DHT22;73763;48.936;9.300;2024-02-26T08:43:09;7.70;99.90
83770;DHT22;73763;48.936;9.300;2024-02-26T08:45:34;7.70;99.90
83770;DHT22;73763;48.936;9.300;2024-02-26T08:48:00;7.70;99.90
83770;DHT22;73763;48.936;9.300;2024-02-26T08:50:25;7.60;99.90
83770;DHT22;73763;48.936;9.300;2024-02-26T08:52:51;7.60;99.90
83770;DHT22;73763;48.936;9.300;2024-02-26T08:55:17;7.80;99.90
83770;DHT22;73763;48.936;9.300;2024-02-26T08:57:42;7.90;99.90
83770;DHT22;73763;48.936;9.300;2024-02-26T09:00:11;8.00;99.90
83770;DHT22;73763;48.936;9.300;2024-02-26T09:02:37;8.00;99.90
83770;DHT22;73763;48.936;9.300;2024-02-26T09:05:02;8.00;99.80
83770;DHT22;73763;48.936;9.300;2024-02-26T09:07:28;7.90;99.80
83770;DHT22;73763;48.936;9.300;2024-02-26T09:09:54;7.90;99.70
83770;DHT22;73763;48.936;9.300;2024-02-26T09:12:19;7.90;99.70
83770;DHT22;73763;48.936;9.300;2024-02-26T09:14:45;7.80;99.50
83770;DHT22;73763;48.936;9.300;2024-02-26T09:17:10;7.80;99.30
83770;DHT22;73763;48.936;9.300;2024-02-26T09:19:36;7.90;99.30
83770;DHT22;73763;48.936;9.300;2024-02-26T09:22:01;7.90;99.70
83770;DHT22;73763;48.936;9.300;2024-02-26T09:24:27;7.90;99.90
83770;DHT22;73763;48.936;9.300;2024-02-26T09:26:52;8.00;99.30
83770;DHT22;73763;48.936;9.300;2024-02-26T09:29:18;8.10;99.00
83770;DHT22;73763;48.936;9.300;2024-02-26T09:31:43;8.30;99.20
83770;DHT22;73763;48.936;9.300;2024-02-26T09:34:09;8.50;98.90
83770;DHT22;73763;48.936;9.300;2024-02-26T09:36:34;8.70;98.70
83770;DHT22;73763;48.936;9.300;2024-02-26T09:39:00;9.00;98.50
83770;DHT22;73763;48.936;9.300;2024-02-26T09:41:28;9.00;98.10
83770;DHT22;73763;48.936;9.300;2024-02-26T09:43:56;9.20;97.60
83770;DHT22;73763;48.936;9.300;2024-02-26T09:46:23;9.30;97.20
83770;DHT22;73763;48.936;9.300;2024-02-26T09:48:49;9.40;97.10
83770;DHT22;73763;48.936;9.300;2024-02-26T09:51:15;9.40;96.60
83770;DHT22;73763;48.936;9.300;2024-02-26T09:53:43;9.50;96.80
83770;DHT22;73763;48.936;9.300;2024-02-26T09:56:09;9.40;96.40
83770;DHT22;73763;48.936;9.300;2024-02-26T09:58:36;9.40;96.40
83770;DHT22;73763;48.936;9.300;2024-02-26T10:01:06;9.40;96.70
83770;DHT22;73763;48.936;9.300;2024-02-26T10:03:39;9.30;96.30
83770;DHT22;73763;48.936;9.300;2024-02-26T10:06:07;9.30;96.90
83770;DHT22;73763;48.936;9.300;2024-02-26T10:08:34;9.40;96.70
83770;DHT22;73763;48.936;9.300;2024-02-26T10:11:00;9.50;96.80
83770;DHT22;73763;48.936;9.300;2024-02-26T10:13:25;9.70;96.70
83770;DHT22;73763;48.936;9.300;2024-02-26T10:15:51;9.90;96.50
83770;DHT22;73763;48.936;9.300;2024-02-26T10:18:17;10.00;96.10
83770;DHT22;73763;48.936;9.300;2024-02-26T10:20:42;10.20;95.90
83770;DHT22;73763;48.936;9.300;2024-02-26T10:23:10;10.50;95.90
83770;DHT22;73763;48.936;9.300;2024-02-26T10:25:35;10.90;95.00
83770;DHT22;73763;48.936;9.300;2024-02-26T10:28:01;11.50;94.70
83770;DHT22;73763;48.936;9.300;2024-02-26T10:30:27;12.10;93.00
83770;DHT22;73763;48.936;9.300;2024-02-26T10:32:54;12.20;92.00
83770;DHT22;73763;48.936;9.300;2024-02-26T10:35:19;12.40;91.30
83770;DHT22;73763;48.936;9.300;2024-02-26T10:37:45;13.10;90.90
83770;DHT22;73763;48.936;9.300;2024-02-26T10:40:12;14.20;88.70
83770;DHT22;73763;48.936;9.300;2024-02-26T10:42:38;15.40;82.90
83770;DHT22;73763;48.936;9.300;2024-02-26T10:45:08;16.70;79.00
83770;DHT22;73763;48.936;9.300;2024-02-26T10:47:34;17.70;68.70
83770;DHT22;73763;48.936;9.300;2024-02-26T10:50:04;18.60;64.30
83770;DHT22;73763;48.936;9.300;2024-02-26T10:52:35;19.20;58.20
83770;DHT22;73763;48.936;9.300;2024-02-26T10:55:02;18.90;56.70
83770;DHT22;73763;48.936;9.300;2024-02-26T10:57:36;18.50;56.70
83770;DHT22;73763;48.936;9.300;2024-02-26T11:00:03;18.70;58.50
83770;DHT22;73763;48.936;9.300;2024-02-26T11:02:30;19.30;58.20
83770;DHT22;73763;48.936;9.300;2024-02-26T11:04:56;19.40;56.60
83770;DHT22;73763;48.936;9.300;2024-02-26T11:07:22;19.00;57.10
83770;DHT22;73763;48.936;9.300;2024-02-26T11:09:48;19.10;56.20
83770;DHT22;73763;48.936;9.300;2024-02-26T11:12:14;19.20;55.70
83770;DHT22;73763;48.936;9.300;2024-02-26T11:14:40;19.50;55.60
83770;DHT22;73763;48.936;9.300;2024-02-26T11:17:08;20.20;52.70
83770;DHT22;73763;48.936;9.300;2024-02-26T11:19:36;20.30;51.80
83770;DHT22;73763;48.936;9.300;2024-02-26T11:22:03;21.20;51.10
83770;DHT22;73763;48.936;9.300;2024-02-26T11:24:29;22.60;48.00
83770;DHT22;73763;48.936;9.300;2024-02-26T11:26:58;23.70;45.00
83770;DHT22;73763;48.936;9.300;2024-02-26T11:29:29;24.00;45.20
83770;DHT22;73763;48.936;9.300;2024-02-26T11:31:59;25.30;42.00
83770;DHT22;73763;48.936;9.300;2024-02-26T11:34:25;26.40;40.00
83770;DHT22;73763;48.936;9.300;2024-02-26T11:36:51;26.10;39.40
83770;DHT22;73763;48.936;9.300;2024-02-26T11:39:16;25.30;39.50
83770;DHT22;73763;48.936;9.300;2024-02-26T11:41:43;23.70;41.30
83770;DHT22;73763;48.936;9.300;2024-02-26T11:44:08;23.00;46.30
83770;DHT22;73763;48.936;9.300;2024-02-26T11:46:41;22.30;45.20
83770;DHT22;73763;48.936;9.300;2024-02-26T11:51:52;21.20;46.40
83770;DHT22;73763;48.936;9.300;2024-02-26T11:54:47;20.40;46.40
83770;DHT22;73763;48.936;9.300;2024-02-26T11:57:26;20.00;47.30
83770;DHT22;73763;48.936;9.300;2024-02-26T11:59:52;19.70;47.10
83770;DHT22;73763;48.936;9.300;2024-02-26T12:05:17;20.40;47.70
83770;DHT22;73763;48.936;9.300;2024-02-26T12:07:53;21.30;45.80
83770;DHT22;73763;48.936;9.300;2024-02-26T12:10:25;21.80;45.00
83770;DHT22;73763;48.936;9.300;2024-02-26T12:12:59;22.70;44.70
83770;DHT22;73763;48.936;9.300;2024-02-26T12:15:27;23.30;43.10
83770;DHT22;73763;48.936;9.300;2024-02-26T12:17:56;23.20;42.70
83770;DHT22;73763;48.936;9.300;2024-02-26T12:20:21;23.00;42.60
83770;DHT22;73763;48.936;9.300;2024-02-26T12:22:49;22.40;42.60
83770;DHT22;73763;48.936;9.300;2024-02-26T12:25:16;21.20;44.40
83770;DHT22;73763;48.936;9.300;2024-02-26T12:27:41;20.20;46.50
83770;DHT22;73763;48.936;9.300;2024-02-26T12:30:07;19.60;47.10
83770;DHT22;73763;48.936;9.300;2024-02-26T12:32:34;19.00;48.60
83770;DHT22;73763;48.936;9.300;2024-02-26T12:35:00;18.20;51.00
83770;DHT22;73763;48.936;9.300;2024-02-26T12:37:26;17.80;52.20
83770;DHT22;73763;48.936;9.300;2024-02-26T12:39:52;17.80;51.60
83770;DHT22;73763;48.936;9.300;2024-02-26T12:42:18;17.80;51.50
83770;DHT22;73763;48.936;9.300;2024-02-26T12:44:46;17.80;51.60
83770;DHT22;73763;48.936;9.300;2024-02-26T12:47:11;17.90;52.60
83770;DHT22;73763;48.936;9.300;2024-02-26T12:49:37;17.80;51.20
83770;DHT22;73763;48.936;9.300;2024-02-26T12:52:03;17.80;51.50
83770;DHT22;73763;48.936;9.300;2024-02-26T12:54:33;17.90;51.00
83770;DHT22;73763;48.936;9.300;2024-02-26T12:57:00;18.20;51.30
83770;DHT22;73763;48.936;9.300;2024-02-26T12:59:25;18.30;50.90
83770;DHT22;73763;48.936;9.300;2024-02-26T13:01:51;18.40;50.90
83770;DHT22;73763;48.936;9.300;2024-02-26T13:04:17;18.80;51.00
83770;DHT22;73763;48.936;9.300;2024-02-26T13:06:43;19.70;51.50
83770;DHT22;73763;48.936;9.300;2024-02-26T13:09:12;20.20;49.30
83770;DHT22;73763;48.936;9.300;2024-02-26T13:11:39;20.20;48.30
83770;DHT22;73763;48.936;9.300;2024-02-26T13:14:05;19.80;47.90
83770;DHT22;73763;48.936;9.300;2024-02-26T13:16:31;19.70;49.30
83770;DHT22;73763;48.936;9.300;2024-02-26T13:18:56;19.50;51.00
83770;DHT22;73763;48.936;9.300;2024-02-26T13:21:22;19.30;49.60
83770;DHT22;73763;48.936;9.300;2024-02-26T13:23:51;19.30;48.90
83770;DHT22;73763;48.936;9.300;2024-02-26T13:26:17;19.40;50.30
83770;DHT22;73763;48.936;9.300;2024-02-26T13:28:42;19.40;50.00
83770;DHT22;73763;48.936;9.300;2024-02-26T13:31:08;19.50;48.40
83770;DHT22;73763;48.936;9.300;2024-02-26T13:33:34;19.50;49.10
83770;DHT22;73763;48.936;9.300;2024-02-26T13:36:00;19.50;49.20
83770;DHT22;73763;48.936;9.300;2024-02-26T13:38:27;19.40;48.20
83770;DHT22;73763;48.936;9.300;2024-02-26T13:40:53;19.40;49.00
83770;DHT22;73763;48.936;9.300;2024-02-26T13:43:19;19.50;48.00
83770;DHT22;73763;48.936;9.300;2024-02-26T13:45:45;19.60;48.10
83770;DHT22;73763;48.936;9.300;2024-02-26T13:48:11;19.70;49.60
83770;DHT22;73763;48.936;9.300;2024-02-26T13:50:41;19.60;48.40
83770;DHT22;73763;48.936;9.300;2024-02-26T13:53:06;19.60;48.50
83770;DHT22;73763;48.936;9.300;2024-02-26T13:55:32;19.40;48.90
83770;DHT22;73763;48.936;9.300;2024-02-26T13:57:59;19.40;47.60
83770;DHT22;73763;48.936;9.300;2024-02-26T14:00:24;19.40;49.10
83770;DHT22;73763;48.936;9.300;2024-02-26T14:02:50;19.30;48.60
83770;DHT22;73763;48.936;9.300;2024-02-26T14:05:16;19.30;49.00
83770;DHT22;73763;48.936;9.300;2024-02-26T14:07:42;19.50;49.70
83770;DHT22;73763;48.936;9.300;2024-02-26T14:10:08;19.70;48.40
83770;DHT22;73763;48.936;9.300;2024-02-26T14:12:34;19.90;47.40
83770;DHT22;73763;48.936;9.300;2024-02-26T14:15:00;19.70;46.80
83770;DHT22;73763;48.936;9.300;2024-02-26T14:17:25;19.80;47.40
83770;DHT22;73763;48.936;9.300;2024-02-26T14:19:51;19.90;47.50
83770;DHT22;73763;48.936;9.300;2024-02-26T14:22:16;20.30;46.80
83770;DHT22;73763;48.936;9.300;2024-02-26T14:24:42;20.90;45.90
83770;DHT22;73763;48.936;9.300;2024-02-26T14:27:09;21.50;45.60
83770;DHT22;73763;48.936;9.300;2024-02-26T14:29:35;21.90;44.30
83770;DHT22;73763;48.936;9.300;2024-02-26T14:32:01;22.10;43.50
83770;DHT22;73763;48.936;9.300;2024-02-26T14:34:27;22.30;42.30
83770;DHT22;73763;48.936;9.300;2024-02-26T14:36:52;22.00;41.80
83770;DHT22;73763;48.936;9.300;2024-02-26T14:39:18;21.30;43.20
83770;DHT22;73763;48.936;9.300;2024-02-26T14:41:43;20.50;44.60
83770;DHT22;73763;48.936;9.300;2024-02-26T14:44:09;19.80;46.90
83770;DHT22;73763;48.936;9.300;2024-02-26T14:46:36;19.20;49.30
83770;DHT22;73763;48.936;9.300;2024-02-26T14:49:01;19.00;50.50
83770;DHT22;73763;48.936;9.300;2024-02-26T14:51:27;19.10;49.70
83770;DHT22;73763;48.936;9.300;2024-02-26T14:53:52;19.60;48.00
83770;DHT22;73763;48.936;9.300;2024-02-26T14:56:18;19.60;47.30
83770;DHT22;73763;48.936;9.300;2024-02-26T14:58:43;19.30;48.30
83770;DHT22;73763;48.936;9.300;2024-02-26T15:01:09;19.60;48.50
83770;DHT22;73763;48.936;9.300;2024-02-26T15:03:34;19.70;47.70
83770;DHT22;73763;48.936;9.300;2024-02-26T15:06:00;19.50;47.90
83770;DHT22;73763;48.936;9.300;2024-02-26T15:08:25;19.10;48.60
83770;DHT22;73763;48.936;9.300;2024-02-26T15:10:51;18.70;49.30
83770;DHT22;73763;48.936;9.300;2024-02-26T15:13:16;18.10;51.10
83770;DHT22;73763;48.936;9.300;2024-02-26T15:15:42;17.80;51.80
83770;DHT22;73763;48.936;9.300;2024-02-26T15:18:08;17.50;53.10
83770;DHT22;73763;48.936;9.300;2024-02-26T15:20:33;17.30;54.30
83770;DHT22;73763;48.936;9.300;2024-02-26T15:22:59;16.90;54.30
83770;DHT22;73763;48.936;9.300;2024-02-26T15:25:24;16.60;56.00
83770;DHT22;73763;48.936;9.300;2024-02-26T15:27:50;16.20;56.70
83770;DHT22;73763;48.936;9.300;2024-02-26T15:30:15;15.90;58.10
83770;DHT22;73763;48.936;9.300;2024-02-26T15:32:41;15.50;59.10
83770;DHT22;73763;48.936;9.300;2024-02-26T15:35:07;15.20;60.00
83770;DHT22;73763;48.936;9.300;2024-02-26T15:37:32;15.00;62.60
83770;DHT22;73763;48.936;9.300;2024-02-26T15:39:58;14.70;63.80
83770;DHT22;73763;48.936;9.300;2024-02-26T15:42:24;14.50;66.10
83770;DHT22;73763;48.936;9.300;2024-02-26T15:44:49;14.40;67.90
83770;DHT22;73763;48.936;9.300;2024-02-26T15:47:15;14.20;69.80
83770;DHT22;73763;48.936;9.300;2024-02-26T15:49:40;14.10;71.60